sensor_id;sensor_type;location;lat;lon;timestamp;pressure;altitude;pressure_sealevel;temperature;humidity
55466;BME280;41329;41.594;23.810;2023-03-15T00:00:37;94467.03;;;7.61;53.13
55466;BME280;41329;41.594;23.810;2023-03-15T00:03:03;94459.50;;;7.58;53.18
55466;BME280;41329;41.594;23.810;2023-03-15T00:05:30;94448.06;;;7.53;53.64
55466;BME280;41329;41.594;23.810;2023-03-15T00:07:57;94450.81;;;7.53;54.35
55466;BME280;41329;41.594;23.810;2023-03-15T00:10:23;94446.03;;;7.50;54.30
55466;BME280;41329;41.594;23.810;2023-03-15T00:12:48;94438.16;;;7.48;54.37
55466;BME280;41329;41.594;23.810;2023-03-15T00:15:14;94442.06;;;7.47;54.39
55466;BME280;41329;41.594;23.810;2023-03-15T00:17:40;94439.38;;;7.51;53.97
55466;BME280;41329;41.594;23.810;2023-03-15T00:20:06;94438.19;;;7.52;53.80
55466;BME280;41329;41.594;23.810;2023-03-15T00:22:32;94434.22;;;7.49;53.55
55466;BME280;41329;41.594;23.810;2023-03-15T00:24:57;94424.00;;;7.46;53.83
55466;BME280;41329;41.594;23.810;2023-03-15T00:27:22;94415.66;;;7.43;53.75
55466;BME280;41329;41.594;23.810;2023-03-15T00:29:48;94365.69;;;7.08;54.03
55466;BME280;41329;41.594;23.810;2023-03-15T00:32:13;94413.97;;;7.35;54.02
55466;BME280;41329;41.594;23.810;2023-03-15T00:34:39;94411.63;;;7.33;54.61
55466;BME280;41329;41.594;23.810;2023-03-15T00:37:04;94401.69;;;7.25;54.92
55466;BME280;41329;41.594;23.810;2023-03-15T00:39:30;94412.03;;;7.35;54.70
55466;BME280;41329;41.594;23.810;2023-03-15T00:41:55;94399.09;;;7.36;54.74
55466;BME280;41329;41.594;23.810;2023-03-15T00:44:22;94391.97;;;7.35;54.79
55466;BME280;41329;41.594;23.810;2023-03-15T00:46:48;94382.88;;;7.31;54.65
55466;BME280;41329;41.594;23.810;2023-03-15T00:49:14;94382.84;;;7.27;54.55
55466;BME280;41329;41.594;23.810;2023-03-15T00:51:39;94380.47;;;7.26;54.51
55466;BME280;41329;41.594;23.810;2023-03-15T00:54:05;94385.13;;;7.22;54.38
55466;BME280;41329;41.594;23.810;2023-03-15T00:56:30;94379.84;;;7.10;54.81
55466;BME280;41329;41.594;23.810;2023-03-15T00:58:56;94377.66;;;6.93;55.43
55466;BME280;41329;41.594;23.810;2023-03-15T01:01:27;94385.50;;;6.91;55.55
55466;BME280;41329;41.594;23.810;2023-03-15T01:03:53;94382.97;;;6.79;55.54
55466;BME280;41329;41.594;23.810;2023-03-15T01:06:21;94375.41;;;6.72;55.81
55466;BME280;41329;41.594;23.810;2023-03-15T01:08:47;94374.06;;;6.63;56.29
55466;BME280;41329;41.594;23.810;2023-03-15T01:11:16;94365.31;;;6.53;56.83
55466;BME280;41329;41.594;23.810;2023-03-15T01:13:43;94351.09;;;6.48;57.03
55466;BME280;41329;41.594;23.810;2023-03-15T01:16:11;94349.81;;;6.42;57.07
55466;BME280;41329;41.594;23.810;2023-03-15T01:18:37;94372.69;;;6.49;57.42
55466;BME280;41329;41.594;23.810;2023-03-15T01:21:07;94363.19;;;6.43;58.08
55466;BME280;41329;41.594;23.810;2023-03-15T01:23:32;94353.44;;;6.23;58.96
55466;BME280;41329;41.594;23.810;2023-03-15T01:26:02;94348.09;;;6.08;59.71
55466;BME280;41329;41.594;23.810;2023-03-15T01:28:28;94336.66;;;6.06;59.84
55466;BME280;41329;41.594;23.810;2023-03-15T01:30:54;94298.50;;;5.97;59.88
55466;BME280;41329;41.594;23.810;2023-03-15T01:33:20;94322.59;;;6.07;60.06
55466;BME280;41329;41.594;23.810;2023-03-15T01:35:46;94315.06;;;6.04;60.12
55466;BME280;41329;41.594;23.810;2023-03-15T01:38:12;94328.00;;;6.26;60.08
55466;BME280;41329;41.594;23.810;2023-03-15T01:40:45;94321.38;;;6.31;59.25
55466;BME280;41329;41.594;23.810;2023-03-15T01:43:18;94302.53;;;6.29;59.54
55466;BME280;41329;41.594;23.810;2023-03-15T01:46:13;94323.94;;;6.43;59.29
55466;BME280;41329;41.594;23.810;2023-03-15T01:49:05;94320.03;;;6.21;59.08
55466;BME280;41329;41.594;23.810;2023-03-15T01:51:57;94330.16;;;6.40;58.87
55466;BME280;41329;41.594;23.810;2023-03-15T01:54:29;94322.66;;;6.37;58.66
55466;BME280;41329;41.594;23.810;2023-03-15T01:57:00;94342.31;;;6.39;58.57
55466;BME280;41329;41.594;23.810;2023-03-15T01:59:37;94322.16;;;6.28;58.39
55466;BME280;41329;41.594;23.810;2023-03-15T02:02:04;94314.94;;;6.20;58.33
55466;BME280;41329;41.594;23.810;2023-03-15T02:04:43;94294.53;;;5.95;58.21
55466;BME280;41329;41.594;23.810;2023-03-15T02:07:13;94312.41;;;6.08;58.51
55466;BME280;41329;41.594;23.810;2023-03-15T02:12:19;94307.47;;;6.20;58.89
55466;BME280;41329;41.594;23.810;2023-03-15T02:14:44;94295.56;;;6.09;58.93
55466;BME280;41329;41.594;23.810;2023-03-15T02:17:10;94292.88;;;5.90;59.17
55466;BME280;41329;41.594;23.810;2023-03-15T02:22:34;94285.44;;;5.91;59.64
55466;BME280;41329;41.594;23.810;2023-03-15T02:25:17;94269.91;;;5.79;59.77
55466;BME280;41329;41.594;23.810;2023-03-15T02:27:46;94284.53;;;5.83;60.11
55466;BME280;41329;41.594;23.810;2023-03-15T02:30:12;94287.00;;;5.69;60.47
55466;BME280;41329;41.594;23.810;2023-03-15T02:32:38;94265.38;;;5.64;59.91
55466;BME280;41329;41.594;23.810;2023-03-15T02:35:04;94255.47;;;5.60;59.94
55466;BME280;41329;41.594;23.810;2023-03-15T02:37:30;94258.47;;;5.51;60.17
55466;BME280;41329;41.594;23.810;2023-03-15T02:39:55;94289.88;;;5.54;60.64
55466;BME280;41329;41.594;23.810;2023-03-15T02:42:21;94274.63;;;5.56;60.82
55466;BME280;41329;41.594;23.810;2023-03-15T02:44:49;94255.47;;;5.60;60.60
55466;BME280;41329;41.594;23.810;2023-03-15T02:47:25;94258.31;;;5.63;60.73
55466;BME280;41329;41.594;23.810;2023-03-15T02:49:51;94259.50;;;5.66;60.64
55466;BME280;41329;41.594;23.810;2023-03-15T02:52:18;94261.94;;;5.71;60.47
55466;BME280;41329;41.594;23.810;2023-03-15T02:54:44;94272.13;;;5.70;60.26
55466;BME280;41329;41.594;23.810;2023-03-15T02:57:14;94252.44;;;5.42;59.98
55466;BME280;41329;41.594;23.810;2023-03-15T02:59:40;94249.03;;;5.26;60.69
55466;BME280;41329;41.594;23.810;2023-03-15T03:02:09;94225.88;;;5.24;60.89
55466;BME280;41329;41.594;23.810;2023-03-15T03:04:38;94257.75;;;5.54;61.02
55466;BME280;41329;41.594;23.810;2023-03-15T03:07:06;94252.69;;;5.56;61.13
55466;BME280;41329;41.594;23.810;2023-03-15T03:09:31;94260.09;;;5.56;61.04
55466;BME280;41329;41.594;23.810;2023-03-15T03:11:57;94200.38;;;5.23;60.84
55466;BME280;41329;41.594;23.810;2023-03-15T03:14:23;94232.69;;;5.56;60.72
55466;BME280;41329;41.594;23.810;2023-03-15T03:16:49;94224.41;;;5.52;60.40
55466;BME280;41329;41.594;23.810;2023-03-15T03:19:15;94217.03;;;5.56;60.62
55466;BME280;41329;41.594;23.810;2023-03-15T03:21:41;94203.31;;;5.56;61.28
55466;BME280;41329;41.594;23.810;2023-03-15T03:24:10;94196.56;;;5.50;61.13
55466;BME280;41329;41.594;23.810;2023-03-15T03:26:36;94172.78;;;5.35;61.00
55466;BME280;41329;41.594;23.810;2023-03-15T03:29:03;94199.84;;;5.59;60.78
55466;BME280;41329;41.594;23.810;2023-03-15T03:31:32;94221.94;;;5.70;61.04
55466;BME280;41329;41.594;23.810;2023-03-15T03:33:58;94220.34;;;5.69;61.14
55466;BME280;41329;41.594;23.810;2023-03-15T03:36:24;94211.75;;;5.70;61.01
55466;BME280;41329;41.594;23.810;2023-03-15T03:38:50;94185.69;;;5.57;60.60
55466;BME280;41329;41.594;23.810;2023-03-15T03:41:16;94153.81;;;5.27;60.33
55466;BME280;41329;41.594;23.810;2023-03-15T03:43:42;94210.00;;;5.59;60.42
55466;BME280;41329;41.594;23.810;2023-03-15T03:46:07;94206.03;;;5.56;60.36
55466;BME280;41329;41.594;23.810;2023-03-15T03:48:33;94219.81;;;5.60;60.61
55466;BME280;41329;41.594;23.810;2023-03-15T03:50:58;94202.75;;;5.47;60.74
55466;BME280;41329;41.594;23.810;2023-03-15T03:53:24;94220.97;;;5.59;60.57
55466;BME280;41329;41.594;23.810;2023-03-15T03:55:49;94213.19;;;5.61;60.29
55466;BME280;41329;41.594;23.810;2023-03-15T03:58:15;94202.09;;;5.54;60.49
55466;BME280;41329;41.594;23.810;2023-03-15T04:00:41;94189.72;;;5.41;60.73
55466;BME280;41329;41.594;23.810;2023-03-15T04:03:07;94190.81;;;5.36;60.86
55466;BME280;41329;41.594;23.810;2023-03-15T04:05:33;94218.41;;;5.47;60.74
55466;BME280;41329;41.594;23.810;2023-03-15T04:07:59;94201.91;;;5.21;60.65
55466;BME280;41329;41.594;23.810;2023-03-15T04:10:24;94208.06;;;5.14;60.63
55466;BME280;41329;41.594;23.810;2023-03-15T04:12:55;94200.63;;;4.92;61.14
55466;BME280;41329;41.594;23.810;2023-03-15T04:15:21;94199.91;;;4.76;61.78
55466;BME280;41329;41.594;23.810;2023-03-15T04:17:48;94205.22;;;4.88;61.81
55466;BME280;41329;41.594;23.810;2023-03-15T04:20:14;94205.72;;;4.94;62.01
55466;BME280;41329;41.594;23.810;2023-03-15T04:22:42;94193.63;;;4.95;62.30
55466;BME280;41329;41.594;23.810;2023-03-15T04:25:15;94187.78;;;4.96;61.88
55466;BME280;41329;41.594;23.810;2023-03-15T04:27:40;94204.22;;;4.96;61.71
55466;BME280;41329;41.594;23.810;2023-03-15T04:30:06;94185.59;;;4.86;61.79
55466;BME280;41329;41.594;23.810;2023-03-15T04:32:32;94195.69;;;5.01;62.02
55466;BME280;41329;41.594;23.810;2023-03-15T04:34:57;94177.53;;;4.93;62.40
55466;BME280;41329;41.594;23.810;2023-03-15T04:37:23;94187.16;;;5.06;62.58
55466;BME280;41329;41.594;23.810;2023-03-15T04:39:48;94182.84;;;5.05;62.37
55466;BME280;41329;41.594;23.810;2023-03-15T04:42:16;94187.59;;;5.08;62.25
55466;BME280;41329;41.594;23.810;2023-03-15T04:44:42;94190.75;;;5.10;62.39
55466;BME280;41329;41.594;23.810;2023-03-15T04:47:07;94183.34;;;5.11;62.05
55466;BME280;41329;41.594;23.810;2023-03-15T04:49:33;94193.19;;;5.15;62.46
55466;BME280;41329;41.594;23.810;2023-03-15T04:51:59;94192.78;;;5.13;62.84
55466;BME280;41329;41.594;23.810;2023-03-15T04:54:24;94209.59;;;5.12;62.78
55466;BME280;41329;41.594;23.810;2023-03-15T04:56:50;94206.97;;;5.19;62.82
55466;BME280;41329;41.594;23.810;2023-03-15T04:59:15;94186.34;;;5.06;62.38
55466;BME280;41329;41.594;23.810;2023-03-15T05:01:41;94213.25;;;5.19;62.35
55466;BME280;41329;41.594;23.810;2023-03-15T05:04:07;94218.31;;;5.17;62.26
55466;BME280;41329;41.594;23.810;2023-03-15T05:06:32;94219.44;;;5.16;62.18
55466;BME280;41329;41.594;23.810;2023-03-15T05:08:58;94199.94;;;4.99;62.27
55466;BME280;41329;41.594;23.810;2023-03-15T05:11:23;94222.38;;;5.04;62.66
55466;BME280;41329;41.594;23.810;2023-03-15T05:13:48;94197.06;;;4.92;63.37
55466;BME280;41329;41.594;23.810;2023-03-15T05:16:14;94194.81;;;4.97;63.63
55466;BME280;41329;41.594;23.810;2023-03-15T05:18:39;94187.31;;;4.94;63.84
55466;BME280;41329;41.594;23.810;2023-03-15T05:21:05;94192.44;;;4.96;64.43
55466;BME280;41329;41.594;23.810;2023-03-15T05:23:31;94210.09;;;5.17;64.70
55466;BME280;41329;41.594;23.810;2023-03-15T05:26:00;94194.03;;;5.19;64.55
55466;BME280;41329;41.594;23.810;2023-03-15T05:28:26;94192.22;;;5.27;64.45
55466;BME280;41329;41.594;23.810;2023-03-15T05:30:51;94214.41;;;5.41;64.69
55466;BME280;41329;41.594;23.810;2023-03-15T05:33:18;94216.34;;;5.40;64.05
55466;BME280;41329;41.594;23.810;2023-03-15T05:35:44;94203.97;;;5.27;63.94
55466;BME280;41329;41.594;23.810;2023-03-15T05:38:10;94216.00;;;5.42;63.93
55466;BME280;41329;41.594;23.810;2023-03-15T05:40:47;94218.19;;;5.33;63.85
55466;BME280;41329;41.594;23.810;2023-03-15T05:43:13;94211.28;;;5.20;64.19
55466;BME280;41329;41.594;23.810;2023-03-15T05:45:38;94209.13;;;5.10;64.87
55466;BME280;41329;41.594;23.810;2023-03-15T05:48:05;94216.06;;;5.23;64.91
55466;BME280;41329;41.594;23.810;2023-03-15T05:50:31;94218.81;;;5.23;64.56
55466;BME280;41329;41.594;23.810;2023-03-15T05:52:57;94225.00;;;5.20;64.79
55466;BME280;41329;41.594;23.810;2023-03-15T05:55:23;94229.38;;;5.24;64.65
55466;BME280;41329;41.594;23.810;2023-03-15T05:57:48;94221.97;;;5.25;64.81
55466;BME280;41329;41.594;23.810;2023-03-15T06:00:15;94219.63;;;5.04;65.23
55466;BME280;41329;41.594;23.810;2023-03-15T06:02:41;94220.00;;;5.03;65.38
55466;BME280;41329;41.594;23.810;2023-03-15T06:05:07;94223.66;;;5.10;65.17
55466;BME280;41329;41.594;23.810;2023-03-15T06:07:33;94223.34;;;5.15;65.41
55466;BME280;41329;41.594;23.810;2023-03-15T06:09:58;94225.06;;;5.23;65.19
55466;BME280;41329;41.594;23.810;2023-03-15T06:12:24;94228.97;;;5.22;65.44
55466;BME280;41329;41.594;23.810;2023-03-15T06:14:49;94227.78;;;5.01;65.78
55466;BME280;41329;41.594;23.810;2023-03-15T06:17:15;94227.25;;;5.14;65.76
55466;BME280;41329;41.594;23.810;2023-03-15T06:19:41;94222.09;;;5.32;66.08
55466;BME280;41329;41.594;23.810;2023-03-15T06:22:06;94212.75;;;5.36;66.18
55466;BME280;41329;41.594;23.810;2023-03-15T06:24:32;94195.53;;;5.36;66.25
55466;BME280;41329;41.594;23.810;2023-03-15T06:26:57;94213.06;;;5.54;66.14
55466;BME280;41329;41.594;23.810;2023-03-15T06:29:23;94210.97;;;5.70;66.30
55466;BME280;41329;41.594;23.810;2023-03-15T06:31:49;94183.38;;;5.59;66.09
55466;BME280;41329;41.594;23.810;2023-03-15T06:34:15;94217.69;;;5.72;65.01
55466;BME280;41329;41.594;23.810;2023-03-15T06:36:41;94221.09;;;5.66;65.19
55466;BME280;41329;41.594;23.810;2023-03-15T06:39:07;94208.78;;;5.56;65.42
55466;BME280;41329;41.594;23.810;2023-03-15T06:41:35;94207.69;;;5.61;65.73
55466;BME280;41329;41.594;23.810;2023-03-15T06:44:01;94216.56;;;5.77;65.26
55466;BME280;41329;41.594;23.810;2023-03-15T06:46:26;94186.38;;;5.77;65.51
55466;BME280;41329;41.594;23.810;2023-03-15T06:48:52;94210.66;;;5.97;65.38
55466;BME280;41329;41.594;23.810;2023-03-15T06:51:17;94208.84;;;6.08;65.51
55466;BME280;41329;41.594;23.810;2023-03-15T06:53:42;94201.28;;;6.28;66.15
55466;BME280;41329;41.594;23.810;2023-03-15T06:56:08;94208.03;;;6.34;65.59
55466;BME280;41329;41.594;23.810;2023-03-15T06:58:34;94170.13;;;6.17;65.74
55466;BME280;41329;41.594;23.810;2023-03-15T07:00:59;94206.38;;;6.56;65.16
55466;BME280;41329;41.594;23.810;2023-03-15T07:03:24;94205.34;;;6.71;65.48
55466;BME280;41329;41.594;23.810;2023-03-15T07:05:50;94211.84;;;6.89;65.35
55466;BME280;41329;41.594;23.810;2023-03-15T07:08:22;94202.16;;;6.65;63.80
55466;BME280;41329;41.594;23.810;2023-03-15T07:10:48;94192.06;;;6.43;64.36
55466;BME280;41329;41.594;23.810;2023-03-15T07:13:15;94175.03;;;6.30;64.92
55466;BME280;41329;41.594;23.810;2023-03-15T07:15:41;94195.06;;;6.64;65.26
55466;BME280;41329;41.594;23.810;2023-03-15T07:18:06;94178.31;;;6.43;64.99
55466;BME280;41329;41.594;23.810;2023-03-15T07:20:32;94194.94;;;6.53;65.94
55466;BME280;41329;41.594;23.810;2023-03-15T07:22:57;94191.75;;;6.81;65.21
55466;BME280;41329;41.594;23.810;2023-03-15T07:25:23;94170.66;;;6.92;65.18
55466;BME280;41329;41.594;23.810;2023-03-15T07:27:50;94183.09;;;7.16;64.98
55466;BME280;41329;41.594;23.810;2023-03-15T07:30:16;94180.00;;;7.21;63.13
55466;BME280;41329;41.594;23.810;2023-03-15T07:32:42;94180.13;;;7.35;63.28
55466;BME280;41329;41.594;23.810;2023-03-15T07:35:08;94176.88;;;7.26;62.89
55466;BME280;41329;41.594;23.810;2023-03-15T07:37:34;94177.78;;;7.33;62.92
55466;BME280;41329;41.594;23.810;2023-03-15T07:39:59;94165.16;;;7.32;63.36
55466;BME280;41329;41.594;23.810;2023-03-15T07:42:34;94146.06;;;7.46;64.52
55466;BME280;41329;41.594;23.810;2023-03-15T07:45:00;94147.84;;;7.75;63.62
55466;BME280;41329;41.594;23.810;2023-03-15T07:47:26;94141.75;;;8.03;64.60
55466;BME280;41329;41.594;23.810;2023-03-15T07:49:52;94125.63;;;8.08;62.26
55466;BME280;41329;41.594;23.810;2023-03-15T07:52:17;94135.56;;;8.20;60.82
55466;BME280;41329;41.594;23.810;2023-03-15T07:54:44;94141.59;;;8.43;61.03
55466;BME280;41329;41.594;23.810;2023-03-15T07:57:09;94147.84;;;8.36;58.23
55466;BME280;41329;41.594;23.810;2023-03-15T07:59:35;94148.19;;;8.21;59.86
55466;BME280;41329;41.594;23.810;2023-03-15T08:02:00;94138.41;;;8.30;59.67
55466;BME280;41329;41.594;23.810;2023-03-15T08:04:26;94135.31;;;8.49;60.22
55466;BME280;41329;41.594;23.810;2023-03-15T08:06:51;94132.97;;;8.55;58.54
55466;BME280;41329;41.594;23.810;2023-03-15T08:09:17;94099.81;;;8.30;57.89
55466;BME280;41329;41.594;23.810;2023-03-15T08:11:42;94140.50;;;8.58;57.96
55466;BME280;41329;41.594;23.810;2023-03-15T08:14:07;94123.94;;;8.61;59.26
55466;BME280;41329;41.594;23.810;2023-03-15T08:16:33;94125.59;;;8.76;58.45
55466;BME280;41329;41.594;23.810;2023-03-15T08:18:58;94137.03;;;8.92;57.56
55466;BME280;41329;41.594;23.810;2023-03-15T08:21:24;94129.97;;;8.95;56.74
55466;BME280;41329;41.594;23.810;2023-03-15T08:23:49;94105.53;;;8.83;56.69
55466;BME280;41329;41.594;23.810;2023-03-15T08:26:14;94124.88;;;9.11;56.91
55466;BME280;41329;41.594;23.810;2023-03-15T08:28:40;94130.03;;;9.16;56.47
55466;BME280;41329;41.594;23.810;2023-03-15T08:31:07;94111.88;;;9.15;55.54
55466;BME280;41329;41.594;23.810;2023-03-15T08:33:32;94119.34;;;9.04;55.90
55466;BME280;41329;41.594;23.810;2023-03-15T08:35:58;94132.38;;;9.28;57.35
55466;BME280;41329;41.594;23.810;2023-03-15T08:38:23;94122.16;;;9.32;56.74
55466;BME280;41329;41.594;23.810;2023-03-15T08:40:57;94113.50;;;9.58;55.62
55466;BME280;41329;41.594;23.810;2023-03-15T08:43:23;94101.25;;;9.73;57.02
55466;BME280;41329;41.594;23.810;2023-03-15T08:45:49;94107.16;;;9.82;54.85
55466;BME280;41329;41.594;23.810;2023-03-15T08:48:15;94098.88;;;9.96;55.08
55466;BME280;41329;41.594;23.810;2023-03-15T08:50:42;94087.84;;;9.71;52.67
55466;BME280;41329;41.594;23.810;2023-03-15T08:53:09;94087.84;;;9.78;51.28
55466;BME280;41329;41.594;23.810;2023-03-15T08:55:35;94094.53;;;9.88;51.80
55466;BME280;41329;41.594;23.810;2023-03-15T08:58:02;94071.28;;;9.57;50.84
55466;BME280;41329;41.594;23.810;2023-03-15T09:00:27;94078.78;;;9.74;50.40
55466;BME280;41329;41.594;23.810;2023-03-15T09:02:53;94081.13;;;9.72;50.28
55466;BME280;41329;41.594;23.810;2023-03-15T09:05:20;94107.56;;;9.94;48.36
55466;BME280;41329;41.594;23.810;2023-03-15T09:07:46;94088.97;;;10.02;48.09
55466;BME280;41329;41.594;23.810;2023-03-15T09:10:14;94059.78;;;9.97;46.94
55466;BME280;41329;41.594;23.810;2023-03-15T09:12:41;94080.25;;;10.31;47.22
55466;BME280;41329;41.594;23.810;2023-03-15T09:15:07;94077.84;;;10.44;47.87
55466;BME280;41329;41.594;23.810;2023-03-15T09:17:33;94069.53;;;10.44;46.70
55466;BME280;41329;41.594;23.810;2023-03-15T09:19:58;94079.34;;;10.62;44.91
55466;BME280;41329;41.594;23.810;2023-03-15T09:22:24;94072.25;;;10.54;43.21
55466;BME280;41329;41.594;23.810;2023-03-15T09:24:49;94065.13;;;10.64;43.85
55466;BME280;41329;41.594;23.810;2023-03-15T09:27:17;94074.09;;;10.82;43.09
55466;BME280;41329;41.594;23.810;2023-03-15T09:29:43;94065.91;;;10.61;39.63
55466;BME280;41329;41.594;23.810;2023-03-15T09:32:08;94078.16;;;10.60;41.14
55466;BME280;41329;41.594;23.810;2023-03-15T09:34:35;94078.91;;;10.67;40.26
55466;BME280;41329;41.594;23.810;2023-03-15T09:37:01;94082.50;;;10.61;40.10
55466;BME280;41329;41.594;23.810;2023-03-15T09:39:27;94073.06;;;10.51;39.65
55466;BME280;41329;41.594;23.810;2023-03-15T09:41:55;94078.22;;;10.42;38.48
55466;BME280;41329;41.594;23.810;2023-03-15T09:44:42;94076.34;;;10.22;38.53
55466;BME280;41329;41.594;23.810;2023-03-15T09:50:05;94058.53;;;10.26;39.59
55466;BME280;41329;41.594;23.810;2023-03-15T09:55:50;94083.72;;;10.53;38.91
55466;BME280;41329;41.594;23.810;2023-03-15T09:58:24;94074.31;;;10.33;38.24
55466;BME280;41329;41.594;23.810;2023-03-15T10:00:59;94092.81;;;10.53;38.54
55466;BME280;41329;41.594;23.810;2023-03-15T10:03:34;94092.81;;;10.50;37.12
55466;BME280;41329;41.594;23.810;2023-03-15T10:06:12;94083.38;;;10.37;36.78
55466;BME280;41329;41.594;23.810;2023-03-15T10:08:40;94092.47;;;10.37;36.07
55466;BME280;41329;41.594;23.810;2023-03-15T10:11:27;94072.00;;;10.21;36.82
55466;BME280;41329;41.594;23.810;2023-03-15T10:16:58;94083.78;;;10.39;36.51
55466;BME280;41329;41.594;23.810;2023-03-15T10:19:33;94078.25;;;10.46;36.33
55466;BME280;41329;41.594;23.810;2023-03-15T10:22:03;94066.75;;;10.51;36.59
55466;BME280;41329;41.594;23.810;2023-03-15T10:24:45;94078.16;;;10.67;36.77
55466;BME280;41329;41.594;23.810;2023-03-15T10:27:19;94054.88;;;10.57;36.28
55466;BME280;41329;41.594;23.810;2023-03-15T10:29:47;94079.25;;;10.83;35.81
55466;BME280;41329;41.594;23.810;2023-03-15T10:32:17;94075.66;;;10.86;35.46
55466;BME280;41329;41.594;23.810;2023-03-15T10:34:47;94068.59;;;10.75;35.39
55466;BME280;41329;41.594;23.810;2023-03-15T10:37:14;94070.06;;;10.93;35.66
55466;BME280;41329;41.594;23.810;2023-03-15T10:39:39;94071.31;;;10.85;34.92
55466;BME280;41329;41.594;23.810;2023-03-15T10:42:31;94071.94;;;11.10;35.53
55466;BME280;41329;41.594;23.810;2023-03-15T10:44:58;94067.09;;;11.28;35.36
55466;BME280;41329;41.594;23.810;2023-03-15T10:47:41;94065.13;;;11.25;35.11
55466;BME280;41329;41.594;23.810;2023-03-15T10:50:08;94069.19;;;11.14;33.48
55466;BME280;41329;41.594;23.810;2023-03-15T10:52:38;94062.66;;;11.38;34.98
55466;BME280;41329;41.594;23.810;2023-03-15T10:55:12;94056.78;;;11.32;35.22
55466;BME280;41329;41.594;23.810;2023-03-15T10:57:54;94026.22;;;11.46;34.70
55466;BME280;41329;41.594;23.810;2023-03-15T11:00:33;94038.53;;;11.38;33.54
55466;BME280;41329;41.594;23.810;2023-03-15T11:03:04;94035.13;;;11.20;33.84
55466;BME280;41329;41.594;23.810;2023-03-15T11:05:51;94043.47;;;11.13;33.26
55466;BME280;41329;41.594;23.810;2023-03-15T11:08:21;94035.56;;;11.12;34.17
55466;BME280;41329;41.594;23.810;2023-03-15T11:10:55;94039.41;;;11.25;34.17
55466;BME280;41329;41.594;23.810;2023-03-15T11:13:28;94019.59;;;11.33;33.65
55466;BME280;41329;41.594;23.810;2023-03-15T11:21:13;94023.81;;;12.29;33.77
55466;BME280;41329;41.594;23.810;2023-03-15T11:23:42;94023.97;;;12.49;33.04
55466;BME280;41329;41.594;23.810;2023-03-15T11:26:19;94013.16;;;12.58;32.66
55466;BME280;41329;41.594;23.810;2023-03-15T11:28:52;94010.31;;;12.62;32.76
55466;BME280;41329;41.594;23.810;2023-03-15T11:31:20;94020.66;;;12.61;31.83
55466;BME280;41329;41.594;23.810;2023-03-15T11:33:59;94014.03;;;12.82;33.04
55466;BME280;41329;41.594;23.810;2023-03-15T11:36:31;93988.56;;;12.87;32.91
55466;BME280;41329;41.594;23.810;2023-03-15T11:38:59;94007.81;;;13.27;32.10
55466;BME280;41329;41.594;23.810;2023-03-15T11:47:36;93991.50;;;13.98;31.46
55466;BME280;41329;41.594;23.810;2023-03-15T11:50:04;93977.75;;;13.91;31.55
55466;BME280;41329;41.594;23.810;2023-03-15T11:52:30;93981.97;;;13.99;31.14
55466;BME280;41329;41.594;23.810;2023-03-15T11:54:58;93979.25;;;13.96;30.84
55466;BME280;41329;41.594;23.810;2023-03-15T11:59:53;93963.00;;;13.94;30.65
55466;BME280;41329;41.594;23.810;2023-03-15T12:04:47;93960.72;;;13.89;32.39
55466;BME280;41329;41.594;23.810;2023-03-15T12:09:57;93952.53;;;14.02;32.32
55466;BME280;41329;41.594;23.810;2023-03-15T12:12:44;93948.53;;;14.03;32.16
55466;BME280;41329;41.594;23.810;2023-03-15T12:17:42;93948.31;;;13.94;32.01
55466;BME280;41329;41.594;23.810;2023-03-15T12:20:16;93948.34;;;13.71;32.44
55466;BME280;41329;41.594;23.810;2023-03-15T12:22:48;93942.75;;;13.74;33.58
55466;BME280;41329;41.594;23.810;2023-03-15T12:25:19;93947.59;;;13.90;33.29
55466;BME280;41329;41.594;23.810;2023-03-15T12:27:51;93937.53;;;13.96;33.40
55466;BME280;41329;41.594;23.810;2023-03-15T12:30:22;93941.41;;;14.02;32.34
55466;BME280;41329;41.594;23.810;2023-03-15T12:32:52;93932.66;;;14.03;32.28
55466;BME280;41329;41.594;23.810;2023-03-15T12:35:18;93941.25;;;14.09;33.13
55466;BME280;41329;41.594;23.810;2023-03-15T12:37:46;93927.00;;;13.87;32.50
55466;BME280;41329;41.594;23.810;2023-03-15T12:55:48;93901.97;;;12.99;33.00
55466;BME280;41329;41.594;23.810;2023-03-15T12:58:15;93908.88;;;13.14;33.74
55466;BME280;41329;41.594;23.810;2023-03-15T13:00:42;93906.94;;;12.84;33.72
55466;BME280;41329;41.594;23.810;2023-03-15T13:03:18;93896.06;;;12.70;34.20
55466;BME280;41329;41.594;23.810;2023-03-15T13:11:20;93903.22;;;12.94;34.44
55466;BME280;41329;41.594;23.810;2023-03-15T13:14:03;93923.25;;;13.09;34.02
55466;BME280;41329;41.594;23.810;2023-03-15T13:19:22;93908.47;;;13.15;34.98
55466;BME280;41329;41.594;23.810;2023-03-15T13:21:55;93904.53;;;13.13;34.93
55466;BME280;41329;41.594;23.810;2023-03-15T13:27:19;93901.69;;;13.16;34.75
55466;BME280;41329;41.594;23.810;2023-03-15T13:29:50;93905.78;;;13.08;34.85
55466;BME280;41329;41.594;23.810;2023-03-15T13:32:17;93904.66;;;13.06;35.14
55466;BME280;41329;41.594;23.810;2023-03-15T13:34:46;93906.41;;;12.93;34.71
55466;BME280;41329;41.594;23.810;2023-03-15T13:37:23;93897.78;;;12.61;35.66
55466;BME280;41329;41.594;23.810;2023-03-15T13:39:56;93915.31;;;12.54;36.19
55466;BME280;41329;41.594;23.810;2023-03-15T13:42:24;93909.75;;;12.54;36.09
55466;BME280;41329;41.594;23.810;2023-03-15T13:47:33;93888.69;;;12.33;38.50
55466;BME280;41329;41.594;23.810;2023-03-15T13:50:03;93904.63;;;12.52;38.54
55466;BME280;41329;41.594;23.810;2023-03-15T13:52:29;93904.13;;;12.61;39.17
55466;BME280;41329;41.594;23.810;2023-03-15T13:54:55;93893.53;;;12.52;39.32
55466;BME280;41329;41.594;23.810;2023-03-15T13:57:22;93881.50;;;12.36;39.02
55466;BME280;41329;41.594;23.810;2023-03-15T13:59:58;93898.91;;;12.36;39.53
55466;BME280;41329;41.594;23.810;2023-03-15T14:02:34;93907.44;;;12.22;40.19
55466;BME280;41329;41.594;23.810;2023-03-15T14:05:05;93903.72;;;12.02;41.54
55466;BME280;41329;41.594;23.810;2023-03-15T14:07:46;93908.03;;;12.07;41.23